Gulden Leeuw — PCBH — position and weather

sailwx.info

Track history (hours):
 
Tides and Currents Weather Stations Pressure Air Temp Water Temp Dewpoint Dewpoint Depression Visibility Wind Speed Wind Dir Waves Ship Positions

Gulden Leeuw

Last reported at 2019-Nov-02 18:50 UTC. Time now 2019-Dec-06 05:19 UTC.
Position N 31°37' W 010°08'.
Warning: this ship's position is 33 days out of date.

Length 57 m; draft 4.2 m.

Type: Sailing vessel. MMSI: 246709000.

Date/timePositionNaut miles runAvg speedWind from/ knotsBaromVisibWave heightAir tempDewpointWater temp
2019-Nov-02 18:50N 31°37' W 010°08'1 3.4
2019-Nov-02 18:30N 31°38' W 010°07'2 3.3
2019-Nov-02 18:00N 31°39' W 010°07'2 3.1
2019-Nov-02 17:30N 31°41' W 010°06'53 6.8
2019-Nov-02 09:45N 32°29' W 009°42'6 8.0
2019-Nov-02 09:00N 32°35' W 009°41'4 7.8
2019-Nov-02 08:30N 32°39' W 009°40'  
2019-Oct-24 15:46N 36°38' W 002°50'2 5.1
2019-Oct-24 15:20N 36°38' W 002°48'2 5.4
2019-Oct-24 15:00N 36°38' W 002°45'3 5.6
2019-Oct-24 14:30N 36°39' W 002°42'3 6.3
2019-Oct-24 14:00N 36°39' W 002°38'3 6.4
2019-Oct-24 13:30N 36°40' W 002°34'3 6.8
2019-Oct-24 13:00N 36°41' W 002°30'3 6.0
2019-Oct-24 12:30N 36°42' W 002°27'2 4.1
2019-Oct-24 12:00N 36°42' W 002°24'2 3.9
2019-Oct-24 11:30N 36°42' W 002°22'2 3.8
2019-Oct-24 11:00N 36°42' W 002°19'2 3.7
2019-Oct-24 10:30N 36°42' W 002°17'2 4.8
2019-Oct-24 10:00N 36°42' W 002°14'2 4.9
2019-Oct-24 09:30N 36°41' W 002°11'49 4.8
2019-Oct-23 23:18N 37°18' W 001°32'1 3.6
2019-Oct-23 22:55N 37°19' W 001°31'2 4.6
2019-Oct-23 22:30N 37°21' W 001°30'  
Track history (hours):
 
Tides and Currents Weather Stations Pressure Air Temp Water Temp Dewpoint Dewpoint Depression Visibility Wind Speed Wind Dir Waves Ship Positions

Gulden Leeuw

Last reported at 2019-Nov-02 18:50 UTC. Time now 2019-Dec-06 05:19 UTC.
Position N 31°37' W 010°08'.
Warning: this ship's position is 33 days out of date.

Length 57 m; draft 4.2 m.

Type: Sailing vessel. MMSI: 246709000.

Date/timePositionNaut miles runAvg speedWind from/ knotsBaromVisibWave heightAir tempDewpointWater temp
2019-Nov-02 18:50N 31°37' W 010°08'1 3.4
2019-Nov-02 18:30N 31°38' W 010°07'2 3.3
2019-Nov-02 18:00N 31°39' W 010°07'2 3.1
2019-Nov-02 17:30N 31°41' W 010°06'53 6.8
2019-Nov-02 09:45N 32°29' W 009°42'6 8.0
2019-Nov-02 09:00N 32°35' W 009°41'4 7.8
2019-Nov-02 08:30N 32°39' W 009°40'  
2019-Oct-24 15:46N 36°38' W 002°50'2 5.1
2019-Oct-24 15:20N 36°38' W 002°48'2 5.4
2019-Oct-24 15:00N 36°38' W 002°45'3 5.6
2019-Oct-24 14:30N 36°39' W 002°42'3 6.3
2019-Oct-24 14:00N 36°39' W 002°38'3 6.4
2019-Oct-24 13:30N 36°40' W 002°34'3 6.8
2019-Oct-24 13:00N 36°41' W 002°30'3 6.0
2019-Oct-24 12:30N 36°42' W 002°27'2 4.1
2019-Oct-24 12:00N 36°42' W 002°24'2 3.9
2019-Oct-24 11:30N 36°42' W 002°22'2 3.8
2019-Oct-24 11:00N 36°42' W 002°19'2 3.7
2019-Oct-24 10:30N 36°42' W 002°17'2 4.8
2019-Oct-24 10:00N 36°42' W 002°14'2 4.9
2019-Oct-24 09:30N 36°41' W 002°11'49 4.8
2019-Oct-23 23:18N 37°18' W 001°32'1 3.6
2019-Oct-23 22:55N 37°19' W 001°31'2 4.6
2019-Oct-23 22:30N 37°21' W 001°30'  

Dump ship's entire track history